Time;durP1;ratioP1;P1;durP2;ratioP2;P2;SDS_P1;SDS_P2;PMS_P1;PMS_P2;Temp;Humidity;BMP_temperature;BMP_pressure;BME280_temperature;BME280_humidity;BME280_pressure;Samples;Min_cycle;Max_cycle;Signal;HPM_P1;HPM_P2
2022/07/09 00:02:01;;;;;;;1.52;0.75;;;11.70;99.90;;;;;;5033758;28;20539;-86
2022/07/09 00:04:28;;;;;;;2.30;0.80;;;11.70;99.90;;;;;;5036296;28;20470;-81
2022/07/09 00:06:55;;;;;;;1.10;0.73;;;11.80;99.90;;;;;;5070337;28;20386;-83
2022/07/09 00:09:22;;;;;;;1.77;0.80;;;11.80;99.90;;;;;;5063410;28;20804;-85
2022/07/09 00:11:52;;;;;;;1.95;0.95;;;11.90;99.90;;;;;;5048904;28;20391;-88
2022/07/09 00:14:19;;;;;;;1.08;0.75;;;12.00;99.90;;;;;;5048654;28;20421;-79
2022/07/09 00:16:46;;;;;;;3.67;0.90;;;12.10;99.90;;;;;;5063081;28;20389;-85
2022/07/09 00:19:14;;;;;;;2.22;0.80;;;12.10;99.90;;;;;;5066857;28;20386;-87
2022/07/09 00:21:42;;;;;;;1.27;0.60;;;12.10;99.90;;;;;;5046162;28;20771;-85
2022/07/09 00:24:10;;;;;;;2.08;0.80;;;12.30;98.90;;;;;;5045636;28;20399;-86
2022/07/09 00:26:37;;;;;;;1.27;0.60;;;12.40;99.80;;;;;;5041270;28;20377;-84
2022/07/09 00:29:04;;;;;;;1.33;0.50;;;12.60;97.30;;;;;;5058267;28;20410;-84
2022/07/09 00:31:31;;;;;;;0.85;0.43;;;12.80;96.00;;;;;;5046758;28;20881;-83
2022/07/09 00:33:58;;;;;;;1.80;0.50;;;12.90;93.90;;;;;;5054073;28;20935;-84
2022/07/09 00:36:25;;;;;;;0.88;0.40;;;12.90;94.00;;;;;;5057654;28;20457;-84
2022/07/09 00:38:53;;;;;;;1.67;0.43;;;13.10;92.50;;;;;;5073000;28;20386;-83
2022/07/09 00:41:20;;;;;;;0.77;0.50;;;13.10;93.10;;;;;;5050250;28;20417;-85
2022/07/09 00:43:51;;;;;;;0.65;0.40;;;13.20;93.70;;;;;;5049097;28;20852;-86
2022/07/09 00:46:18;;;;;;;1.75;0.50;;;13.20;92.70;;;;;;5035429;28;20409;-84
2022/07/09 00:48:46;;;;;;;0.97;0.30;;;13.30;91.30;;;;;;5061447;28;20386;-84
2022/07/09 00:51:14;;;;;;;0.90;0.50;;;13.40;90.10;;;;;;5065176;28;20449;-85
2022/07/09 00:53:41;;;;;;;0.75;0.43;;;13.50;87.00;;;;;;5058273;28;20415;-86
2022/07/09 00:56:09;;;;;;;2.20;0.40;;;13.40;85.00;;;;;;5048556;28;20894;-85
2022/07/09 00:58:37;;;;;;;1.10;0.40;;;13.60;90.30;;;;;;5049835;28;20432;-86
2022/07/09 01:01:04;;;;;;;1.23;0.40;;;13.70;85.30;;;;;;5047544;28;20882;-80
2022/07/09 01:03:31;;;;;;;1.55;0.40;;;13.70;84.20;;;;;;5061997;28;20471;-86
2022/07/09 01:06:01;;;;;;;1.15;0.30;;;13.80;87.30;;;;;;5036083;28;20421;-86
2022/07/09 01:08:29;;;;;;;0.55;0.40;;;13.80;84.80;;;;;;5049677;28;20391;-86
2022/07/09 01:10:56;;;;;;;0.90;0.43;;;14.00;80.70;;;;;;5050711;28;20478;-84
2022/07/09 01:13:24;;;;;;;0.40;0.30;;;14.00;83.10;;;;;;5053357;28;20441;-85
2022/07/09 01:15:51;;;;;;;1.25;0.40;;;14.00;79.00;;;;;;5047803;28;20413;-80
2022/07/09 01:18:19;;;;;;;0.70;0.40;;;14.00;80.80;;;;;;5054015;28;20379;-83
2022/07/09 01:20:46;;;;;;;0.65;0.40;;;14.10;79.00;;;;;;5054350;28;20430;-86
2022/07/09 01:23:14;;;;;;;0.65;0.40;;;14.20;78.60;;;;;;5066763;28;20405;-85
2022/07/09 01:25:45;;;;;;;0.80;0.40;;;14.30;77.50;;;;;;5041704;28;20840;-84
2022/07/09 01:28:13;;;;;;;0.90;0.40;;;14.30;77.10;;;;;;5067557;28;20423;-80
2022/07/09 01:30:41;;;;;;;0.40;0.30;;;14.40;77.50;;;;;;5066721;28;20385;-86
2022/07/09 01:33:08;;;;;;;1.35;0.30;;;14.50;75.90;;;;;;5055069;28;20395;-83
2022/07/09 01:35:36;;;;;;;0.52;0.30;;;14.50;75.10;;;;;;5067240;28;20467;-83
2022/07/09 01:38:03;;;;;;;0.63;0.40;;;14.50;75.90;;;;;;5067433;28;20382;-84
2022/07/09 01:40:30;;;;;;;0.65;0.38;;;14.50;73.20;;;;;;5055097;28;20428;-85
2022/07/09 01:42:57;;;;;;;0.52;0.30;;;14.40;75.70;;;;;;5053173;28;20406;-86
2022/07/09 01:45:24;;;;;;;0.50;0.35;;;14.40;74.20;;;;;;5072628;28;20370;-86
2022/07/09 01:47:52;;;;;;;0.63;0.30;;;14.40;74.80;;;;;;5063976;28;20391;-87
2022/07/09 01:50:19;;;;;;;0.45;0.30;;;14.40;74.20;;;;;;5065689;28;20798;-87
2022/07/09 01:52:47;;;;;;;0.63;0.30;;;14.40;74.40;;;;;;5054124;28;20820;-87
2022/07/09 01:55:14;;;;;;;4.20;0.60;;;14.40;78.10;;;;;;5054866;28;20387;-83
2022/07/09 01:57:41;;;;;;;0.95;0.40;;;14.70;76.10;;;;;;5067677;28;20370;-84
2022/07/09 02:00:08;;;;;;;0.63;0.40;;;14.80;75.50;;;;;;5068253;28;20378;-83
2022/07/09 02:02:36;;;;;;;1.30;0.32;;;14.80;74.70;;;;;;5061164;28;20398;-83
2022/07/09 02:05:03;;;;;;;0.33;0.30;;;14.90;74.90;;;;;;5067007;28;20419;-83
2022/07/09 02:07:30;;;;;;;1.10;0.38;;;14.90;73.80;;;;;;5060609;28;20370;-82
2022/07/09 02:09:57;;;;;;;0.60;0.30;;;14.80;73.60;;;;;;5052597;28;20401;-83
2022/07/09 02:12:25;;;;;;;0.60;0.30;;;14.80;73.60;;;;;;5052147;28;20453;-84
2022/07/09 02:14:52;;;;;;;0.37;0.23;;;14.90;72.50;;;;;;5059133;28;20882;-83
2022/07/09 02:17:20;;;;;;;1.13;0.30;;;15.00;72.50;;;;;;5070979;28;20750;-84
2022/07/09 02:19:47;;;;;;;0.88;0.40;;;15.00;74.20;;;;;;5061731;28;20407;-85
2022/07/09 02:22:14;;;;;;;0.85;0.32;;;15.00;73.30;;;;;;5039721;28;20421;-85
2022/07/09 02:24:41;;;;;;;1.02;0.20;;;15.10;74.60;;;;;;5053298;28;20382;-86
2022/07/09 02:27:09;;;;;;;0.68;0.30;;;15.10;72.40;;;;;;5048157;28;20443;-84
2022/07/09 02:29:36;;;;;;;1.38;0.40;;;15.10;71.50;;;;;;5050445;28;20378;-85
2022/07/09 02:32:03;;;;;;;1.00;0.32;;;15.00;73.90;;;;;;5053869;28;20868;-84
2022/07/09 02:34:30;;;;;;;1.02;0.20;;;15.10;74.70;;;;;;5047727;28;20401;-83
2022/07/09 02:36:58;;;;;;;0.70;0.30;;;15.20;73.10;;;;;;5068068;28;20379;-84
2022/07/09 02:39:25;;;;;;;0.50;0.30;;;15.10;71.70;;;;;;5063308;28;20387;-82
2022/07/09 02:41:52;;;;;;;0.77;0.40;;;15.10;73.30;;;;;;5070657;28;20396;-89
2022/07/09 02:44:19;;;;;;;1.23;0.50;;;15.20;74.40;;;;;;5063157;28;20401;-87
2022/07/09 02:46:47;;;;;;;0.98;0.40;;;15.30;73.70;;;;;;5041037;28;20383;-87
2022/07/09 02:49:14;;;;;;;0.65;0.30;;;15.30;73.00;;;;;;5060671;28;20850;-88
2022/07/09 02:51:41;;;;;;;0.47;0.30;;;15.30;72.50;;;;;;5067955;28;20374;-88
2022/07/09 02:54:09;;;;;;;0.50;0.35;;;15.50;71.40;;;;;;5040650;28;20388;-89
2022/07/09 02:56:36;;;;;;;0.30;0.30;;;15.50;73.40;;;;;;5051877;28;20389;-83
2022/07/09 02:59:03;;;;;;;1.15;0.40;;;15.50;72.00;;;;;;5051467;28;20383;-85
2022/07/09 03:01:30;;;;;;;0.90;0.40;;;15.50;71.90;;;;;;5049389;28;20777;-91
2022/07/09 03:03:57;;;;;;;0.70;0.52;;;15.40;70.80;;;;;;5062624;28;20422;-90
2022/07/09 03:06:24;;;;;;;0.68;0.40;;;15.50;72.60;;;;;;5063990;28;20869;-86
2022/07/09 03:08:51;;;;;;;0.55;0.40;;;15.60;70.60;;;;;;5063412;28;20393;-82
2022/07/09 03:11:19;;;;;;;0.93;0.50;;;15.70;70.80;;;;;;5051830;28;20463;-87
2022/07/09 03:13:46;;;;;;;0.70;0.47;;;15.70;70.00;;;;;;5051885;28;20390;-84
2022/07/09 03:16:13;;;;;;;1.92;0.40;;;15.70;72.00;;;;;;5061037;28;20396;-89
2022/07/09 03:18:41;;;;;;;0.47;0.30;;;15.80;71.80;;;;;;5030986;28;20381;-81
2022/07/09 03:21:11;;;;;;;0.70;0.40;;;15.90;70.30;;;;;;5052179;28;20715;-86
2022/07/09 03:23:41;;;;;;;0.50;0.50;;;16.00;69.20;;;;;;5053831;28;20408;-86
2022/07/09 03:26:08;;;;;;;1.23;0.40;;;16.00;72.90;;;;;;5053902;28;20418;-85
2022/07/09 03:28:35;;;;;;;0.88;0.35;;;15.90;70.70;;;;;;5046547;28;21308;-84
2022/07/09 03:31:03;;;;;;;0.88;0.40;;;15.90;74.30;;;;;;5058117;28;20383;-83
2022/07/09 03:33:30;;;;;;;0.75;0.40;;;16.00;71.30;;;;;;5047982;28;20518;-83
2022/07/09 03:35:58;;;;;;;0.88;0.38;;;16.00;69.50;;;;;;5038166;28;20749;-83
2022/07/09 03:38:25;;;;;;;1.05;0.40;;;16.10;69.10;;;;;;5043645;28;20391;-86
2022/07/09 03:40:56;;;;;;;1.33;0.40;;;15.90;69.90;;;;;;5063446;28;20370;-84
2022/07/09 03:43:23;;;;;;;1.10;0.30;;;15.90;69.40;;;;;;5044749;28;20478;-87
2022/07/09 03:45:50;;;;;;;0.73;0.40;;;16.10;68.90;;;;;;5056257;28;20388;-84
2022/07/09 03:48:17;;;;;;;1.20;0.40;;;16.10;70.90;;;;;;5051650;28;20469;-83
2022/07/09 03:50:45;;;;;;;1.00;0.40;;;16.20;71.20;;;;;;5069225;28;20390;-84
2022/07/09 03:53:12;;;;;;;0.60;0.40;;;16.20;69.90;;;;;;5067736;28;20370;-84
2022/07/09 03:55:39;;;;;;;1.73;0.40;;;16.30;69.90;;;;;;5068177;28;20769;-86
2022/07/09 03:58:06;;;;;;;0.40;0.40;;;16.30;70.10;;;;;;5073191;28;20384;-86
2022/07/09 04:00:34;;;;;;;1.33;0.70;;;16.30;69.80;;;;;;5057637;28;20386;-86
2022/07/09 04:03:01;;;;;;;3.80;1.60;;;16.40;69.90;;;;;;5047443;28;20400;-84
2022/07/09 04:05:28;;;;;;;1.60;0.90;;;16.30;68.70;;;;;;5074120;28;20366;-85
2022/07/09 04:07:55;;;;;;;1.67;0.50;;;16.20;69.50;;;;;;5074280;28;20389;-83
2022/07/09 04:10:23;;;;;;;1.80;0.50;;;16.20;67.70;;;;;;5070083;28;20487;-86
2022/07/09 04:12:50;;;;;;;0.80;0.50;;;16.10;68.80;;;;;;5045934;28;20381;-84
2022/07/09 04:15:17;;;;;;;1.35;1.25;;;16.20;69.90;;;;;;5037476;28;20388;-84
2022/07/09 04:17:44;;;;;;;1.33;1.02;;;16.10;69.00;;;;;;5072457;28;20409;-80
2022/07/09 04:20:12;;;;;;;2.38;0.65;;;16.20;70.00;;;;;;5065369;28;20424;-87
2022/07/09 04:22:39;;;;;;;3.53;0.70;;;16.30;69.00;;;;;;5070169;28;20390;-83
2022/07/09 04:25:07;;;;;;;0.75;0.40;;;16.30;69.20;;;;;;5072928;28;20389;-86
2022/07/09 04:27:35;;;;;;;0.98;0.40;;;16.30;67.70;;;;;;5049493;28;20983;-85
2022/07/09 04:30:03;;;;;;;0.70;0.40;;;16.30;67.80;;;;;;5061913;28;20393;-84
2022/07/09 04:32:30;;;;;;;1.15;0.38;;;16.10;68.00;;;;;;5069675;28;20403;-90
2022/07/09 04:34:57;;;;;;;0.52;0.40;;;16.00;68.40;;;;;;5068776;28;20395;-85
2022/07/09 04:37:24;;;;;;;0.80;0.40;;;16.00;69.30;;;;;;5058143;28;20372;-84
2022/07/09 04:39:52;;;;;;;0.30;0.20;;;15.90;69.70;;;;;;5074989;28;20405;-86
2022/07/09 04:42:20;;;;;;;0.50;0.20;;;15.80;68.70;;;;;;5064992;28;20416;-86
2022/07/09 04:44:47;;;;;;;0.47;0.30;;;15.90;68.90;;;;;;5063934;28;20385;-85
2022/07/09 04:47:14;;;;;;;1.25;0.30;;;16.40;66.90;;;;;;5060418;28;20366;-83
2022/07/09 04:49:41;;;;;;;1.15;0.30;;;16.80;67.30;;;;;;5047013;28;20384;-85
2022/07/09 04:52:08;;;;;;;0.50;0.30;;;17.40;66.90;;;;;;5058378;28;20396;-85
2022/07/09 04:54:36;;;;;;;0.45;0.30;;;17.70;64.50;;;;;;5057751;28;21263;-85
2022/07/09 04:57:03;;;;;;;0.93;0.30;;;17.90;63.90;;;;;;5068627;28;20373;-84
2022/07/09 04:59:30;;;;;;;1.17;0.30;;;17.80;62.90;;;;;;5071095;28;20762;-83
2022/07/09 05:01:57;;;;;;;0.60;0.30;;;17.60;64.20;;;;;;5062897;28;20392;-84
2022/07/09 05:04:24;;;;;;;0.63;0.43;;;17.60;65.00;;;;;;5060401;28;20475;-84
2022/07/09 05:06:51;;;;;;;2.45;1.30;;;17.30;64.10;;;;;;5055362;28;20734;-83
2022/07/09 05:09:19;;;;;;;2.05;1.85;;;16.90;66.10;;;;;;5064637;28;20401;-84
2022/07/09 05:11:46;;;;;;;0.63;0.55;;;16.60;65.90;;;;;;5052921;28;20376;-84
2022/07/09 05:14:13;;;;;;;0.60;0.40;;;16.20;67.00;;;;;;5070489;28;20367;-84
2022/07/09 05:16:44;;;;;;;0.52;0.30;;;16.10;67.70;;;;;;5068187;28;20396;-84
2022/07/09 05:19:12;;;;;;;0.35;0.30;;;15.80;68.50;;;;;;5052288;28;20401;-83
2022/07/09 05:21:41;;;;;;;0.45;0.40;;;15.70;68.60;;;;;;5071884;28;20378;-86
2022/07/09 05:24:08;;;;;;;1.00;0.30;;;15.70;71.30;;;;;;5071561;28;20385;-87
2022/07/09 05:26:36;;;;;;;0.90;0.30;;;15.70;68.80;;;;;;5071269;28;20370;-84
2022/07/09 05:29:04;;;;;;;0.80;0.40;;;15.60;70.20;;;;;;5069903;28;20777;-83
2022/07/09 05:31:31;;;;;;;0.40;0.30;;;15.60;69.60;;;;;;5041055;28;20397;-84
2022/07/09 05:34:00;;;;;;;0.60;0.40;;;15.50;70.80;;;;;;5058862;28;20746;-84
2022/07/09 05:36:30;;;;;;;0.35;0.30;;;15.50;69.80;;;;;;5068723;28;20396;-83
2022/07/09 05:38:58;;;;;;;0.35;0.35;;;15.50;70.20;;;;;;5059080;28;20398;-84
2022/07/09 05:41:26;;;;;;;0.60;0.40;;;15.40;70.10;;;;;;5052839;28;20435;-84
2022/07/09 05:43:54;;;;;;;0.55;0.38;;;15.40;71.20;;;;;;5071580;28;20873;-84
2022/07/09 05:46:21;;;;;;;0.50;0.30;;;15.40;72.50;;;;;;5059942;28;20453;-84
2022/07/09 05:48:48;;;;;;;0.80;0.40;;;15.40;72.40;;;;;;5062637;28;20985;-84
2022/07/09 05:51:15;;;;;;;1.20;0.40;;;15.30;72.40;;;;;;5066085;28;20370;-85
2022/07/09 05:53:43;;;;;;;0.50;0.40;;;15.30;72.70;;;;;;5070451;28;20386;-85
2022/07/09 05:56:10;;;;;;;0.90;0.47;;;15.30;72.70;;;;;;5044158;28;20411;-88
2022/07/09 05:58:37;;;;;;;1.42;0.50;;;15.50;71.90;;;;;;5031441;28;20412;-86
2022/07/09 06:01:06;;;;;;;0.70;0.50;;;15.50;70.50;;;;;;5055867;28;20374;-87
2022/07/09 06:03:33;;;;;;;0.65;0.40;;;15.50;72.50;;;;;;5051455;28;20787;-87
2022/07/09 06:06:00;;;;;;;0.68;0.40;;;15.40;71.90;;;;;;5071948;28;20389;-86
2022/07/09 06:08:28;;;;;;;0.45;0.40;;;15.40;71.80;;;;;;5071478;28;20379;-88
2022/07/09 06:10:55;;;;;;;0.75;0.40;;;15.40;72.90;;;;;;5065416;28;20380;-88
2022/07/09 06:13:22;;;;;;;1.10;0.35;;;15.30;71.30;;;;;;5051492;28;20415;-85
2022/07/09 06:15:49;;;;;;;0.95;0.35;;;15.30;71.50;;;;;;5046571;28;20409;-82
2022/07/09 06:18:16;;;;;;;0.40;0.30;;;15.30;72.70;;;;;;5047518;28;20421;-81
2022/07/09 06:20:44;;;;;;;1.30;0.50;;;15.20;73.20;;;;;;5048257;28;20466;-88
2022/07/09 06:23:11;;;;;;;1.30;0.40;;;15.20;73.30;;;;;;5071028;28;20466;-84
2022/07/09 06:25:39;;;;;;;0.80;0.50;;;15.20;72.70;;;;;;5070813;28;20378;-86
2022/07/09 06:28:07;;;;;;;1.52;0.50;;;15.10;73.50;;;;;;5070668;28;20435;-87
2022/07/09 06:30:34;;;;;;;1.00;0.40;;;14.90;74.00;;;;;;5048926;28;20521;-86
2022/07/09 06:33:02;;;;;;;0.40;0.40;;;14.80;74.30;;;;;;5046432;28;20402;-85
2022/07/09 06:35:30;;;;;;;0.50;0.40;;;14.80;75.30;;;;;;5073329;28;20396;-87
2022/07/09 06:37:58;;;;;;;1.03;0.57;;;14.70;76.80;;;;;;5071377;28;20465;-88
2022/07/09 06:40:25;;;;;;;0.40;0.30;;;14.60;75.90;;;;;;5073244;28;20391;-86
2022/07/09 06:42:55;;;;;;;0.95;0.52;;;14.50;76.30;;;;;;5066890;28;20458;-82
2022/07/09 06:45:22;;;;;;;1.20;0.63;;;14.40;76.40;;;;;;5053870;28;20379;-84
2022/07/09 06:47:52;;;;;;;0.70;0.70;;;14.30;77.90;;;;;;5052426;28;20997;-82
2022/07/09 06:50:20;;;;;;;0.55;0.50;;;14.20;78.10;;;;;;5059713;28;20383;-89
2022/07/09 06:52:47;;;;;;;0.70;0.50;;;14.10;79.50;;;;;;5048590;28;20387;-85
2022/07/09 06:55:15;;;;;;;0.80;0.50;;;14.00;80.10;;;;;;5039994;28;20391;-81
2022/07/09 06:57:42;;;;;;;0.97;0.50;;;13.90;81.10;;;;;;5065488;28;20915;-81
2022/07/09 07:00:09;;;;;;;0.60;0.50;;;13.80;81.80;;;;;;5066716;28;20375;-84
2022/07/09 07:02:36;;;;;;;2.10;1.05;;;13.70;83.60;;;;;;5053001;28;20439;-92
2022/07/09 07:05:04;;;;;;;2.15;1.33;;;13.60;83.60;;;;;;5045725;28;20731;-80
2022/07/09 07:07:32;;;;;;;3.38;2.60;;;13.60;84.90;;;;;;5040679;28;20887;-84
2022/07/09 07:09:59;;;;;;;1.60;1.30;;;13.50;85.70;;;;;;5056801;28;20471;-83
2022/07/09 07:12:26;;;;;;;5.70;1.15;;;13.30;87.20;;;;;;5057919;28;20374;-86
2022/07/09 07:14:53;;;;;;;5.95;1.00;;;13.20;88.70;;;;;;5044410;28;20402;-80
2022/07/09 07:17:20;;;;;;;5.03;1.10;;;13.10;90.10;;;;;;5066257;28;20801;-83
2022/07/09 07:19:48;;;;;;;7.32;3.65;;;13.10;90.90;;;;;;5052955;28;20476;-83
2022/07/09 07:22:16;;;;;;;4.15;1.70;;;13.20;90.10;;;;;;5040232;28;20393;-84
2022/07/09 07:24:44;;;;;;;4.30;1.70;;;13.30;90.30;;;;;;5053426;28;20392;-86
2022/07/09 07:27:11;;;;;;;3.63;0.95;;;13.20;90.40;;;;;;5059751;28;20375;-84
2022/07/09 07:29:38;;;;;;;4.65;1.40;;;13.00;90.60;;;;;;5043969;28;20381;-83
2022/07/09 07:32:05;;;;;;;3.05;0.88;;;13.10;90.80;;;;;;5068529;28;20377;-84
2022/07/09 07:34:34;;;;;;;2.67;1.10;;;13.00;91.10;;;;;;5083747;28;20402;-88
2022/07/09 07:37:01;;;;;;;3.83;1.58;;;12.90;91.50;;;;;;5078550;28;20452;-88
2022/07/09 07:39:28;;;;;;;2.63;0.80;;;12.70;92.00;;;;;;5075999;28;20446;-87
2022/07/09 07:41:56;;;;;;;2.83;0.90;;;12.50;93.10;;;;;;5062093;28;20478;-92
2022/07/09 07:44:24;;;;;;;5.50;2.50;;;12.30;94.00;;;;;;5055468;28;20478;-80
2022/07/09 07:46:51;;;;;;;3.92;2.10;;;12.10;96.40;;;;;;5074406;28;20374;-84
2022/07/09 07:49:18;;;;;;;3.78;2.53;;;12.00;96.40;;;;;;5077840;28;20382;-88
2022/07/09 07:51:45;;;;;;;8.68;3.95;;;11.80;97.50;;;;;;5077406;28;20461;-84
2022/07/09 07:54:13;;;;;;;4.22;2.78;;;11.70;99.80;;;;;;5066671;28;20375;-85
2022/07/09 07:56:41;;;;;;;4.00;3.23;;;11.50;99.90;;;;;;5069800;28;20489;-83
2022/07/09 07:59:08;;;;;;;6.25;5.05;;;11.50;99.90;;;;;;5083364;28;20354;-87
2022/07/09 08:01:35;;;;;;;16.80;11.02;;;11.30;99.90;;;;;;5089838;28;20398;-82
2022/07/09 08:04:03;;;;;;;18.92;13.73;;;11.20;99.90;;;;;;5076923;28;20401;-81
2022/07/09 08:06:30;;;;;;;9.77;7.32;;;11.10;99.90;;;;;;5075785;28;20752;-86
2022/07/09 08:08:57;;;;;;;9.20;6.50;;;10.90;99.90;;;;;;5078527;28;20410;-90
2022/07/09 08:11:24;;;;;;;9.73;6.80;;;10.80;99.90;;;;;;5067557;28;20385;-88
2022/07/09 08:13:51;;;;;;;9.25;5.85;;;10.60;99.90;;;;;;5071806;28;20395;-87
2022/07/09 08:16:19;;;;;;;8.13;5.40;;;10.50;99.90;;;;;;5084088;28;20375;-83
2022/07/09 08:18:47;;;;;;;5.90;4.78;;;10.30;99.90;;;;;;5068600;28;20381;-82
2022/07/09 08:21:15;;;;;;;5.20;4.45;;;10.30;99.90;;;;;;5051119;28;20919;-83
2022/07/09 08:23:54;;;;;;;7.55;4.85;;;9.70;99.90;;;;;;5076390;28;20401;-87
2022/07/09 08:26:24;;;;;;;8.52;5.45;;;10.00;99.90;;;;;;5057355;28;20390;-85
2022/07/09 08:28:53;;;;;;;5.85;4.90;;;10.00;99.90;;;;;;5077774;28;20933;-83
2022/07/09 08:31:21;;;;;;;7.40;5.10;;;10.00;99.90;;;;;;5076422;28;20389;-83
2022/07/09 08:33:49;;;;;;;6.18;4.93;;;10.00;99.90;;;;;;5074319;28;20749;-82
2022/07/09 08:36:16;;;;;;;7.93;4.90;;;9.90;99.90;;;;;;5054694;28;20383;-81
2022/07/09 08:38:46;;;;;;;8.80;5.53;;;9.90;99.90;;;;;;5052985;28;20422;-87
2022/07/09 08:41:16;;;;;;;7.30;4.72;;;9.80;99.90;;;;;;5053490;28;20840;-85
2022/07/09 08:43:43;;;;;;;6.78;4.30;;;9.90;99.90;;;;;;5053871;28;20403;-85
2022/07/09 08:46:12;;;;;;;5.05;3.85;;;9.90;99.90;;;;;;5046423;28;20385;-83
2022/07/09 08:48:39;;;;;;;4.53;3.30;;;9.90;99.90;;;;;;5044552;28;20475;-89
2022/07/09 08:51:06;;;;;;;5.07;3.30;;;10.00;99.90;;;;;;5045360;28;20408;-86
2022/07/09 08:53:34;;;;;;;4.00;3.22;;;10.00;99.90;;;;;;5052239;28;20376;-86
2022/07/09 08:56:01;;;;;;;4.33;3.10;;;10.10;99.90;;;;;;5049837;28;20387;-87
2022/07/09 08:58:29;;;;;;;3.50;2.80;;;10.10;99.90;;;;;;5052926;28;20733;-86
2022/07/09 09:00:58;;;;;;;3.63;2.83;;;10.20;99.90;;;;;;5051924;28;20380;-83
2022/07/09 09:03:26;;;;;;;4.20;2.78;;;10.10;99.90;;;;;;5048009;28;20892;-82
2022/07/09 09:06:10;;;;;;;3.88;2.90;;;10.10;99.90;;;;;;5041000;28;20388;-82
2022/07/09 09:08:44;;;;;;;3.05;2.75;;;9.90;99.90;;;;;;5038273;28;20395;-83
2022/07/09 09:11:22;;;;;;;5.28;3.80;;;9.90;99.90;;;;;;5039424;28;20379;-82
2022/07/09 09:13:51;;;;;;;8.27;6.70;;;9.90;99.90;;;;;;5044191;28;20873;-82
2022/07/09 09:16:19;;;;;;;6.43;5.18;;;9.90;99.90;;;;;;5051870;28;20409;-85
2022/07/09 09:18:49;;;;;;;6.70;5.03;;;9.90;99.90;;;;;;5040867;28;20416;-83
2022/07/09 09:21:22;;;;;;;4.90;3.95;;;9.90;99.90;;;;;;5043124;28;20376;-85
2022/07/09 09:23:52;;;;;;;5.13;3.40;;;9.90;99.90;;;;;;5050372;28;20457;-88
2022/07/09 09:26:22;;;;;;;4.60;2.85;;;9.90;99.90;;;;;;5051366;28;20367;-81
2022/07/09 09:28:53;;;;;;;6.53;4.25;;;9.90;99.90;;;;;;5050551;28;20392;-88
2022/07/09 09:31:26;;;;;;;6.05;4.40;;;9.80;99.90;;;;;;5046322;28;20386;-84
2022/07/09 09:34:09;;;;;;;4.40;2.93;;;9.60;99.90;;;;;;5043955;28;20438;-86
2022/07/09 09:36:40;;;;;;;5.13;3.97;;;9.60;99.90;;;;;;5051658;28;20437;-86
2022/07/09 09:39:23;;;;;;;6.18;4.35;;;9.60;99.90;;;;;;5040120;28;20451;-82
2022/07/09 09:41:55;;;;;;;8.23;6.40;;;9.60;99.90;;;;;;5042487;28;20384;-80
2022/07/09 09:44:26;;;;;;;11.38;6.93;;;9.70;99.90;;;;;;5035256;28;20394;-83
2022/07/09 09:46:54;;;;;;;8.77;6.00;;;9.80;99.90;;;;;;5048366;28;20422;-82
2022/07/09 09:49:22;;;;;;;5.28;3.90;;;9.90;99.90;;;;;;5046419;28;20396;-82
2022/07/09 09:51:52;;;;;;;5.82;3.90;;;10.00;99.90;;;;;;5040163;28;20394;-88
2022/07/09 09:54:21;;;;;;;4.20;2.53;;;10.00;99.90;;;;;;5043369;28;20435;-85
2022/07/09 09:56:49;;;;;;;3.78;2.20;;;9.90;99.90;;;;;;5044492;28;20423;-86
2022/07/09 09:59:17;;;;;;;1.98;1.80;;;9.80;99.90;;;;;;5048652;28;20462;-81
2022/07/09 10:01:46;;;;;;;2.30;1.83;;;9.80;99.90;;;;;;5036880;28;20899;-81
2022/07/09 10:04:15;;;;;;;2.53;1.70;;;9.70;99.90;;;;;;5039046;28;20484;-84
2022/07/09 10:06:43;;;;;;;1.80;1.60;;;9.60;99.90;;;;;;5043043;28;20408;-82
2022/07/09 10:09:13;;;;;;;2.83;1.70;;;9.50;99.90;;;;;;5040204;28;20388;-84
2022/07/09 10:11:48;;;;;;;2.10;1.50;;;9.40;99.90;;;;;;5044298;28;20494;-83
2022/07/09 10:14:23;;;;;;;2.30;1.60;;;9.40;99.90;;;;;;5048058;28;20395;-80
2022/07/09 10:16:52;;;;;;;1.50;1.20;;;9.30;99.90;;;;;;5044213;28;20396;-84
2022/07/09 10:19:26;;;;;;;4.53;2.25;;;9.20;99.90;;;;;;5038680;28;20421;-79
2022/07/09 10:21:59;;;;;;;2.75;2.10;;;9.20;99.90;;;;;;5042700;28;20831;-82
2022/07/09 10:24:28;;;;;;;4.15;1.90;;;9.20;99.90;;;;;;5046074;28;20395;-80
2022/07/09 10:27:09;;;;;;;2.55;2.10;;;9.10;99.90;;;;;;5039446;28;20902;-82
2022/07/09 10:29:53;;;;;;;2.40;2.20;;;9.10;99.90;;;;;;5051506;28;20756;-87
2022/07/09 10:32:35;;;;;;;2.42;2.13;;;9.00;99.90;;;;;;5050795;28;20375;-83
2022/07/09 10:35:04;;;;;;;2.67;2.25;;;8.90;99.90;;;;;;5054720;28;20398;-79
2022/07/09 10:37:33;;;;;;;4.95;3.20;;;8.70;99.90;;;;;;5042468;28;20500;-81
2022/07/09 10:40:11;;;;;;;5.50;3.92;;;8.60;99.90;;;;;;5052392;28;20391;-82
2022/07/09 10:42:38;;;;;;;6.10;5.10;;;8.50;99.90;;;;;;5046566;28;20400;-82
2022/07/09 10:45:27;;;;;;;10.00;7.70;;;8.50;99.90;;;;;;5049962;28;20470;-84
2022/07/09 10:47:56;;;;;;;6.45;4.90;;;8.40;99.90;;;;;;5038040;28;20442;-84
2022/07/09 10:50:25;;;;;;;6.40;3.70;;;8.40;99.90;;;;;;5039160;28;20427;-83
2022/07/09 10:52:53;;;;;;;5.75;3.25;;;8.50;99.90;;;;;;5051157;28;20368;-88
2022/07/09 10:55:22;;;;;;;4.60;2.92;;;8.60;99.90;;;;;;5040033;28;20394;-81
2022/07/09 10:57:49;;;;;;;2.53;2.00;;;8.70;99.90;;;;;;5047664;28;20391;-91
2022/07/09 11:00:18;;;;;;;1.98;1.45;;;8.80;99.90;;;;;;5040998;28;20408;-84
2022/07/09 11:02:58;;;;;;;2.53;1.70;;;8.80;99.90;;;;;;5047620;28;20402;-82
2022/07/09 11:05:43;;;;;;;2.33;1.30;;;8.90;99.90;;;;;;5053348;28;20395;-82
2022/07/09 11:08:11;;;;;;;2.22;1.60;;;8.80;99.90;;;;;;5054722;28;20380;-88
2022/07/09 11:10:39;;;;;;;2.83;1.85;;;8.80;99.90;;;;;;5054741;28;20526;-89
2022/07/09 11:13:08;;;;;;;2.77;2.10;;;8.70;99.90;;;;;;5053161;28;20456;-85
2022/07/09 11:15:37;;;;;;;4.70;3.50;;;8.60;99.90;;;;;;5048183;28;20395;-81
2022/07/09 11:18:06;;;;;;;5.28;3.70;;;8.50;99.90;;;;;;5053761;28;20384;-84
2022/07/09 11:20:39;;;;;;;4.20;3.70;;;8.30;99.90;;;;;;5055096;28;20388;-82
2022/07/09 11:23:10;;;;;;;5.03;3.88;;;8.20;99.90;;;;;;5051852;28;20767;-81
2022/07/09 11:25:38;;;;;;;3.10;2.77;;;8.10;99.90;;;;;;5040977;28;20388;-80
2022/07/09 11:28:05;;;;;;;3.88;2.97;;;8.00;99.90;;;;;;5052885;28;20383;-81
2022/07/09 11:30:33;;;;;;;3.53;2.60;;;8.00;99.90;;;;;;5054631;28;20372;-86
2022/07/09 11:33:01;;;;;;;3.58;2.60;;;7.90;99.90;;;;;;5054868;28;20808;-81
2022/07/09 11:35:35;;;;;;;2.53;2.33;;;7.80;99.90;;;;;;5053990;28;20390;-82
2022/07/09 11:38:06;;;;;;;2.97;2.50;;;7.80;99.90;;;;;;5043391;28;20467;-81
2022/07/09 11:40:34;;;;;;;3.70;3.00;;;7.80;99.90;;;;;;5049057;28;20381;-84
2022/07/09 11:43:01;;;;;;;4.07;2.78;;;7.80;99.90;;;;;;5046028;28;20409;-80
2022/07/09 11:45:30;;;;;;;3.00;2.40;;;7.70;99.90;;;;;;5054437;28;20384;-83
2022/07/09 11:48:12;;;;;;;5.25;2.55;;;7.70;99.90;;;;;;5052749;28;20499;-81
2022/07/09 11:50:45;;;;;;;2.60;2.20;;;7.70;99.90;;;;;;5054345;28;20450;-83
2022/07/09 11:53:25;;;;;;;2.93;2.40;;;7.80;99.90;;;;;;5054576;28;20379;-85
2022/07/09 11:56:06;;;;;;;3.10;2.60;;;7.90;99.90;;;;;;5050317;28;20390;-87
2022/07/09 11:58:33;;;;;;;4.00;2.60;;;8.00;99.90;;;;;;5054432;28;20453;-82
2022/07/09 12:01:01;;;;;;;3.17;2.40;;;8.10;99.90;;;;;;5043549;28;20389;-82
2022/07/09 12:03:30;;;;;;;3.30;2.72;;;8.10;99.90;;;;;;5046010;28;20914;-81
2022/07/09 12:05:57;;;;;;;4.35;2.80;;;8.00;99.90;;;;;;5048609;28;20387;-81
2022/07/09 12:08:32;;;;;;;3.60;3.10;;;7.90;99.90;;;;;;5053642;28;20380;-82
2022/07/09 12:11:00;;;;;;;6.97;5.07;;;7.80;99.90;;;;;;5051753;28;20903;-81
2022/07/09 12:13:29;;;;;;;6.63;4.57;;;7.70;99.90;;;;;;5052814;28;20418;-81
2022/07/09 12:15:56;;;;;;;6.05;4.95;;;7.60;99.90;;;;;;5051732;28;20391;-82
2022/07/09 12:18:23;;;;;;;6.97;5.35;;;7.50;99.90;;;;;;5053995;28;20383;-84
2022/07/09 12:20:51;;;;;;;7.93;6.65;;;7.40;99.90;;;;;;5052950;28;20410;-81
2022/07/09 12:23:18;;;;;;;10.05;8.88;;;7.20;99.90;;;;;;5052962;28;20839;-80
2022/07/09 12:25:49;;;;;;;8.93;7.40;;;7.20;99.90;;;;;;5045086;28;20998;-82
2022/07/09 12:28:16;;;;;;;6.67;5.70;;;7.10;99.90;;;;;;5053397;28;20436;-86
2022/07/09 12:30:44;;;;;;;6.50;4.03;;;7.10;99.90;;;;;;5052615;28;20376;-80
2022/07/09 12:33:12;;;;;;;6.07;3.85;;;7.10;99.90;;;;;;5043556;28;20888;-81
2022/07/09 12:35:43;;;;;;;6.23;4.03;;;7.10;99.90;;;;;;5041137;28;21195;-81
2022/07/09 12:38:13;;;;;;;5.35;4.00;;;7.10;99.90;;;;;;5052720;28;20376;-82
2022/07/09 12:40:40;;;;;;;6.55;4.25;;;7.10;99.90;;;;;;5052755;28;20755;-84
2022/07/09 12:43:08;;;;;;;4.20;3.40;;;7.20;99.90;;;;;;5051481;28;20407;-81
2022/07/09 12:45:35;;;;;;;4.30;3.25;;;7.20;99.90;;;;;;5052664;28;20372;-81
2022/07/09 12:48:03;;;;;;;4.07;2.97;;;7.30;99.90;;;;;;5047886;28;20420;-83
2022/07/09 12:50:30;;;;;;;4.00;2.90;;;6.70;99.90;;;;;;5048136;28;20390;-86
2022/07/09 12:52:57;;;;;;;3.08;2.70;;;7.40;99.90;;;;;;5052577;28;20380;-79
2022/07/09 12:55:25;;;;;;;4.13;2.70;;;7.40;99.90;;;;;;5041088;28;20897;-81
2022/07/09 12:57:52;;;;;;;4.32;2.85;;;7.40;99.90;;;;;;5046397;28;20396;-86